createdAt,value
2023-04-02T00:00:53.120Z,0
2023-04-02T00:05:54.369Z,0
2023-04-02T00:10:55.656Z,0
2023-04-02T00:15:57.035Z,0
2023-04-02T00:20:58.325Z,0
2023-04-02T00:25:59.725Z,0
2023-04-02T00:31:00.975Z,0
2023-04-02T00:36:02.481Z,0
2023-04-02T00:41:04.095Z,0.88715
2023-04-02T00:46:05.453Z,0
2023-04-02T00:51:06.860Z,0
2023-04-02T00:56:08.210Z,0
2023-04-02T01:01:09.538Z,0
2023-04-02T01:06:11.223Z,0
2023-04-02T01:11:12.609Z,0
2023-04-02T01:16:13.935Z,0
2023-04-02T01:21:15.400Z,0
2023-04-02T01:26:17.037Z,0.88715
2023-04-02T01:31:18.438Z,0.88715
2023-04-02T01:36:19.818Z,0
2023-04-02T01:41:21.254Z,0
2023-04-02T01:46:22.835Z,0.88715
2023-04-02T01:51:24.157Z,0
2023-04-02T01:56:25.683Z,0
2023-04-02T02:01:26.907Z,0
2023-04-02T02:06:28.156Z,0
2023-04-02T02:11:29.753Z,0
2023-04-02T02:16:31.129Z,0.88715
2023-04-02T02:21:32.385Z,0
2023-04-02T02:26:33.779Z,0
2023-04-02T02:31:35.212Z,0
2023-04-02T02:36:36.768Z,0
2023-04-02T02:41:38.096Z,0
2023-04-02T02:46:39.399Z,0
2023-04-02T02:51:40.746Z,0.88715
2023-04-02T02:56:42.022Z,0
2023-04-02T03:01:43.447Z,0.88715
2023-04-02T03:06:44.878Z,0
2023-04-02T03:11:46.215Z,0
2023-04-02T03:16:47.451Z,0
2023-04-02T03:21:48.932Z,0
2023-04-02T03:26:50.640Z,0
2023-04-02T03:31:51.919Z,0
2023-04-02T03:36:53.356Z,0
2023-04-02T03:41:54.870Z,0.88715
2023-04-02T03:46:56.135Z,0.88715
2023-04-02T03:51:57.501Z,0.88715
2023-04-02T03:56:58.866Z,1.16185
2023-04-02T04:02:00.291Z,1.3463
2023-04-02T04:07:01.633Z,1.6592
2023-04-02T04:12:03.143Z,4.7767
2023-04-02T04:17:04.516Z,6.99235
2023-04-02T04:22:05.928Z,19.77045
2023-04-02T04:27:07.327Z,32.4405
2023-04-02T04:32:08.592Z,48.3565
2023-04-02T04:37:09.970Z,72.16585
2023-04-02T04:42:11.436Z,92.9327
2023-04-02T04:47:12.691Z,118.771
2023-04-02T04:52:13.995Z,145.4574
2023-04-02T04:57:15.520Z,170.11485
2023-04-02T05:02:16.800Z,188.70445
2023-04-02T05:07:18.248Z,208.40075
2023-04-02T05:12:19.839Z,225.22
2023-04-02T05:17:21.300Z,247.1297
2023-04-02T05:22:22.785Z,262.3079
2023-04-02T05:27:24.199Z,275.82605
2023-04-02T05:32:25.574Z,308.3217
2023-04-02T05:37:27.060Z,309.1888
2023-04-02T05:42:28.634Z,325.38055
2023-04-02T05:47:30.080Z,366.11945
2023-04-02T05:52:31.575Z,375.728
2023-04-02T05:57:44.503Z,363.7026
2023-04-02T06:02:51.015Z,442.5448
2023-04-02T06:07:52.299Z,479.781
2023-04-02T06:12:53.988Z,504.3833
2023-04-02T06:17:55.242Z,539.83015
2023-04-02T06:22:56.762Z,542.04355
2023-04-02T06:27:58.257Z,548.9785
2023-04-02T06:32:59.669Z,565.7426
2023-04-02T06:38:01.027Z,591.8775
2023-04-02T06:43:02.528Z,596.61805
2023-04-02T06:48:04.036Z,597.00595
2023-04-02T06:53:05.355Z,580.83135
2023-04-02T06:58:06.986Z,609.4174
2023-04-02T07:03:08.273Z,621.1842
2023-04-02T07:08:09.570Z,638.98085
2023-04-02T07:13:11.042Z,652.75945
2023-04-02T07:18:12.291Z,648.75855
2023-04-02T07:23:15.266Z,695.67745
2023-04-02T07:28:19.159Z,643.26305
2023-04-02T07:33:21.146Z,692.9524
2023-04-02T07:38:22.511Z,647.06235
2023-04-02T07:43:23.806Z,711.65045
2023-04-02T07:48:25.043Z,692.23175
2023-04-02T07:53:26.378Z,778.3815
2023-04-02T07:58:27.867Z,658.9793
2023-04-02T08:03:29.463Z,755.1445
2023-04-02T08:08:31.046Z,792.3237
2023-04-02T08:13:32.705Z,799.98115
2023-04-02T08:18:33.993Z,811.7118
2023-04-02T08:23:35.408Z,798.49025
2023-04-02T08:28:36.895Z,813.8719
2023-04-02T08:33:38.375Z,700.7109
2023-04-02T08:38:39.719Z,759.9096
2023-04-02T08:43:41.132Z,870.5501
2023-04-02T08:48:42.789Z,957.3618
2023-04-02T08:53:44.098Z,941.48095
2023-04-02T08:58:45.392Z,814.35295
2023-04-02T09:03:46.764Z,982.84245
2023-04-02T09:08:48.072Z,483.2267
2023-04-02T09:13:49.352Z,540.5128
2023-04-02T09:18:50.601Z,996.29425
2023-04-02T09:23:51.879Z,1041.13195
2023-04-02T09:28:53.725Z,506.498
2023-04-02T09:33:55.098Z,566.01465
2023-04-02T09:38:56.443Z,1038.9547
2023-04-02T09:43:57.742Z,1085.67015
2023-04-02T09:48:59.089Z,1112.7348
2023-04-02T09:54:00.448Z,1176.8513
2023-04-02T09:59:01.768Z,1273.0258
2023-04-02T10:04:03.123Z,1230.43145
2023-04-02T10:09:04.511Z,1236.8199
2023-04-02T10:14:05.770Z,812.6211
2023-04-02T10:19:07.005Z,547.229
2023-04-02T10:24:08.267Z,650.02515
2023-04-02T10:29:09.944Z,630.75475
2023-04-02T10:34:11.500Z,1179.6391
2023-04-02T10:39:12.770Z,904.1579
2023-04-02T10:44:20.300Z,1512.64835
2023-04-02T10:49:22.184Z,1543.52195
2023-04-02T10:54:23.506Z,1582.1406
2023-04-02T10:59:24.808Z,1635.38225
2023-04-02T11:04:26.125Z,808.1146
2023-04-02T11:09:27.410Z,671.1952
2023-04-02T11:14:28.767Z,1653.5821
2023-04-02T11:19:30.335Z,1670.21875
2023-04-02T11:24:31.861Z,1599.57995
2023-04-02T11:29:33.336Z,1723.69075
2023-04-02T11:34:34.870Z,1763.2261
2023-04-02T11:39:36.137Z,1811.91165
2023-04-02T11:44:37.625Z,1799.33475
2023-04-02T11:49:38.877Z,1842.6008
2023-04-02T11:54:40.200Z,1839.81505
2023-04-02T11:59:41.811Z,1900.34155
2023-04-02T12:04:43.094Z,1916.10925
2023-04-02T12:09:44.908Z,1897.4265
2023-04-02T12:14:46.234Z,1931.7458
2023-04-02T12:19:47.771Z,1948.8941
2023-04-02T12:24:49.212Z,1959.55235
2023-04-02T12:29:50.857Z,1964.2359
2023-04-02T12:34:52.108Z,1972.07225
2023-04-02T12:39:53.704Z,1986.62295
2023-04-02T12:44:54.967Z,2004.8418
2023-04-02T12:49:56.240Z,2004.085
2023-04-02T12:54:57.586Z,2019.963
2023-04-02T12:59:58.974Z,1814.27385
2023-04-02T13:05:00.418Z,1853.4324
2023-04-02T13:10:01.856Z,2030.6611
2023-04-02T13:15:03.649Z,1900.93525
2023-04-02T13:20:05.188Z,1363.4251
2023-04-02T13:25:06.627Z,830.5452
2023-04-02T13:30:08.195Z,638.1156
2023-04-02T13:35:09.573Z,705.0997
2023-04-02T13:40:10.886Z,1677.4434
2023-04-02T13:45:12.381Z,474.1446
2023-04-02T13:50:13.759Z,442.75195
2023-04-02T13:55:15.115Z,377.16745
2023-04-02T14:00:16.411Z,425.80155
2023-04-02T14:05:17.888Z,366.5129
2023-04-02T14:10:19.968Z,340.6213
2023-04-02T14:15:21.533Z,274.7249
2023-04-02T14:20:23.096Z,212.07445
2023-04-02T14:25:24.683Z,161.74415
2023-04-02T14:30:26.087Z,138.06225
2023-04-02T14:35:27.597Z,147.09845
2023-04-02T14:40:29.098Z,166.20525
2023-04-02T14:45:30.592Z,145.9936
2023-04-02T14:50:31.824Z,111.52415
2023-04-02T14:55:33.181Z,89.6506
2023-04-02T15:00:34.915Z,68.53385
2023-04-02T15:05:36.880Z,58.1875
2023-04-02T15:10:38.358Z,39.6892
2023-04-02T15:15:41.104Z,20.9513
2023-04-02T15:20:42.518Z,18.369
2023-04-02T15:25:43.872Z,16.2849
2023-04-02T15:30:45.388Z,13.2234
2023-04-02T15:35:46.927Z,10.34635
2023-04-02T15:40:48.251Z,7.8382
2023-04-02T15:45:49.906Z,4.96115
2023-04-02T15:50:51.295Z,4.4078
2023-04-02T15:55:52.512Z,5.3852
2023-04-02T16:00:53.843Z,1.83695
2023-04-02T16:05:55.238Z,2.50815
2023-04-02T16:10:56.681Z,0.47405
2023-04-02T16:15:58.197Z,2.32725
2023-04-02T16:20:59.584Z,0.88715
2023-04-02T16:26:00.815Z,0.88715
2023-04-02T16:31:02.219Z,0.88715
2023-04-02T16:36:03.557Z,0
2023-04-02T16:41:08.898Z,0
2023-04-02T16:46:10.648Z,0
2023-04-02T16:51:11.915Z,0.88715
2023-04-02T16:56:13.231Z,0
2023-04-02T17:01:14.755Z,0
2023-04-02T17:06:16.048Z,0
2023-04-02T17:11:17.281Z,0
2023-04-02T17:16:18.603Z,0
2023-04-02T17:21:20.159Z,0
2023-04-02T17:26:21.540Z,0
2023-04-02T17:31:22.954Z,0
2023-04-02T17:36:24.230Z,0
2023-04-02T17:41:25.707Z,0
2023-04-02T17:46:27.720Z,0.88715
2023-04-02T17:51:29.062Z,0
2023-04-02T17:56:30.434Z,0.88715
2023-04-02T18:01:32.228Z,0
2023-04-02T18:06:33.869Z,0.88715
2023-04-02T18:11:35.260Z,0
2023-04-02T18:16:36.841Z,0.88715
2023-04-02T18:21:38.350Z,0
2023-04-02T18:26:39.606Z,0
2023-04-02T18:31:40.921Z,0
2023-04-02T18:36:42.594Z,0
2023-04-02T18:41:43.888Z,0
2023-04-02T18:46:45.666Z,0
2023-04-02T18:51:46.955Z,0
2023-04-02T18:56:48.458Z,0.88715
2023-04-02T19:01:49.852Z,0
2023-04-02T19:06:51.083Z,0
2023-04-02T19:11:52.566Z,0
2023-04-02T19:16:53.988Z,0
2023-04-02T19:21:55.256Z,0
2023-04-02T19:26:56.621Z,0
2023-04-02T19:31:58.101Z,0
2023-04-02T19:36:59.437Z,0
2023-04-02T19:42:00.728Z,0
2023-04-02T19:47:02.194Z,0
2023-04-02T19:52:03.577Z,0
2023-04-02T19:57:05.406Z,0
2023-04-02T20:02:07.001Z,0
2023-04-02T20:07:08.287Z,0
2023-04-02T20:12:09.903Z,0.88715
2023-04-02T20:17:11.268Z,0
2023-04-02T20:22:12.746Z,0
2023-04-02T20:27:14.471Z,0
2023-04-02T20:32:15.869Z,0.88715
2023-04-02T20:37:17.135Z,0
2023-04-02T20:42:18.507Z,0
2023-04-02T20:47:19.880Z,0
2023-04-02T20:52:21.293Z,0
2023-04-02T20:57:22.558Z,0
2023-04-02T21:02:24.241Z,0
2023-04-02T21:07:25.552Z,0
2023-04-02T21:12:26.912Z,0
2023-04-02T21:17:28.550Z,0
2023-04-02T21:22:29.795Z,0
2023-04-02T21:27:31.070Z,0
2023-04-02T21:32:32.677Z,0.88715
2023-04-02T21:37:34.398Z,0.88715
2023-04-02T21:42:35.958Z,0
2023-04-02T21:47:37.304Z,0
2023-04-02T21:52:38.925Z,0
2023-04-02T21:57:40.429Z,0.88715
2023-04-02T22:02:42.467Z,0
2023-04-02T22:07:43.778Z,0.88715
2023-04-02T22:12:45.317Z,0
2023-04-02T22:17:46.836Z,0
2023-04-02T22:22:48.308Z,0
2023-04-02T22:27:49.629Z,0
2023-04-02T22:32:51.078Z,0
2023-04-02T22:37:52.437Z,0
2023-04-02T22:42:53.806Z,0
2023-04-02T22:47:55.221Z,0
2023-04-02T22:52:56.568Z,0.88715
2023-04-02T22:57:58.030Z,0
2023-04-02T23:02:59.460Z,0
2023-04-02T23:08:00.888Z,0.88715
2023-04-02T23:13:02.248Z,0
2023-04-02T23:18:04.248Z,0.88715
2023-04-02T23:23:05.529Z,0
2023-04-02T23:28:06.946Z,0
2023-04-02T23:33:08.356Z,0
2023-04-02T23:38:09.693Z,0
2023-04-02T23:43:10.994Z,0
2023-04-02T23:48:13.070Z,0
2023-04-02T23:53:14.360Z,0
2023-04-02T23:58:15.619Z,0
